sensor_id;sensor_type;location;lat;lon;timestamp;pressure;altitude;pressure_sealevel;temperature;humidity
11712;BME280;5912;51.034;6.984;2023-01-26T00:01:26;100570.75;;;-4.21;98.55
11712;BME280;5912;51.034;6.984;2023-01-26T00:03:56;100565.72;;;-4.23;98.29
11712;BME280;5912;51.034;6.984;2023-01-26T00:06:22;100562.25;;;-4.22;98.17
11712;BME280;5912;51.034;6.984;2023-01-26T00:08:50;100551.94;;;-4.33;98.11
11712;BME280;5912;51.034;6.984;2023-01-26T00:11:52;100566.06;;;-4.27;98.15
11712;BME280;5912;51.034;6.984;2023-01-26T00:14:17;100561.53;;;-4.24;98.53
11712;BME280;5912;51.034;6.984;2023-01-26T00:16:42;100561.31;;;-4.21;98.71
11712;BME280;5912;51.034;6.984;2023-01-26T00:19:08;100566.44;;;-4.21;98.00
11712;BME280;5912;51.034;6.984;2023-01-26T00:21:33;100556.41;;;-4.24;97.43
11712;BME280;5912;51.034;6.984;2023-01-26T00:23:58;100546.59;;;-4.30;97.70
11712;BME280;5912;51.034;6.984;2023-01-26T00:26:25;100547.31;;;-4.28;98.14
11712;BME280;5912;51.034;6.984;2023-01-26T00:28:52;100541.22;;;-4.27;97.56
11712;BME280;5912;51.034;6.984;2023-01-26T00:31:23;100523.25;;;-4.38;97.53
11712;BME280;5912;51.034;6.984;2023-01-26T00:33:50;100536.09;;;-4.27;97.40
11712;BME280;5912;51.034;6.984;2023-01-26T00:36:15;100536.09;;;-4.27;97.61
11712;BME280;5912;51.034;6.984;2023-01-26T00:38:41;100534.38;;;-4.26;97.21
11712;BME280;5912;51.034;6.984;2023-01-26T00:41:06;100527.69;;;-4.29;96.63
11712;BME280;5912;51.034;6.984;2023-01-26T00:43:32;100528.53;;;-4.28;97.54
11712;BME280;5912;51.034;6.984;2023-01-26T00:45:58;100509.81;;;-4.41;96.65
11712;BME280;5912;51.034;6.984;2023-01-26T00:48:23;100513.09;;;-4.39;97.54
11712;BME280;5912;51.034;6.984;2023-01-26T00:50:52;100513.47;;;-4.33;96.86
11712;BME280;5912;51.034;6.984;2023-01-26T00:53:17;100495.00;;;-4.49;96.84
11712;BME280;5912;51.034;6.984;2023-01-26T00:55:43;100512.66;;;-4.33;97.17
11712;BME280;5912;51.034;6.984;2023-01-26T00:58:08;100521.16;;;-4.33;96.08
11712;BME280;5912;51.034;6.984;2023-01-26T01:00:36;100504.78;;;-4.43;96.75
11712;BME280;5912;51.034;6.984;2023-01-26T01:03:01;100519.50;;;-4.34;96.28
11712;BME280;5912;51.034;6.984;2023-01-26T01:05:28;100506.69;;;-4.34;96.29
11712;BME280;5912;51.034;6.984;2023-01-26T01:07:54;100509.34;;;-4.35;96.41
11712;BME280;5912;51.034;6.984;2023-01-26T01:10:19;100515.22;;;-4.33;96.76
11712;BME280;5912;51.034;6.984;2023-01-26T01:12:45;100504.13;;;-4.34;96.59
11712;BME280;5912;51.034;6.984;2023-01-26T01:15:10;100479.22;;;-4.56;96.03
11712;BME280;5912;51.034;6.984;2023-01-26T01:17:36;100506.22;;;-4.39;95.04
11712;BME280;5912;51.034;6.984;2023-01-26T01:20:03;100503.75;;;-4.40;95.11
11712;BME280;5912;51.034;6.984;2023-01-26T01:22:30;100499.91;;;-4.46;95.39
11712;BME280;5912;51.034;6.984;2023-01-26T01:24:55;100503.81;;;-4.53;96.13
11712;BME280;5912;51.034;6.984;2023-01-26T01:27:21;100504.88;;;-4.56;95.41
11712;BME280;5912;51.034;6.984;2023-01-26T01:29:48;100477.66;;;-4.69;95.36
11712;BME280;5912;51.034;6.984;2023-01-26T01:32:20;100459.44;;;-4.77;95.51
11712;BME280;5912;51.034;6.984;2023-01-26T01:34:46;100493.00;;;-4.57;95.33
11712;BME280;5912;51.034;6.984;2023-01-26T01:37:13;100486.91;;;-4.56;96.27
11712;BME280;5912;51.034;6.984;2023-01-26T01:39:38;100487.75;;;-4.55;95.14
11712;BME280;5912;51.034;6.984;2023-01-26T01:42:04;100491.09;;;-4.55;96.20
11712;BME280;5912;51.034;6.984;2023-01-26T01:44:29;100485.97;;;-4.55;95.77
11712;BME280;5912;51.034;6.984;2023-01-26T01:47:04;100486.47;;;-4.49;96.00
11712;BME280;5912;51.034;6.984;2023-01-26T01:49:33;100489.97;;;-4.50;95.49
11712;BME280;5912;51.034;6.984;2023-01-26T01:52:12;100485.53;;;-4.48;95.76
11712;BME280;5912;51.034;6.984;2023-01-26T01:54:51;100475.28;;;-4.48;95.63
11712;BME280;5912;51.034;6.984;2023-01-26T01:57:24;100440.97;;;-4.70;95.62
11712;BME280;5912;51.034;6.984;2023-01-26T02:00:00;100466.56;;;-4.46;96.13
11712;BME280;5912;51.034;6.984;2023-01-26T02:02:26;100458.16;;;-4.48;95.40
11712;BME280;5912;51.034;6.984;2023-01-26T02:04:54;100457.31;;;-4.48;95.77
11712;BME280;5912;51.034;6.984;2023-01-26T02:07:22;100445.56;;;-4.51;95.64
11712;BME280;5912;51.034;6.984;2023-01-26T02:09:48;100452.09;;;-4.47;95.65
11712;BME280;5912;51.034;6.984;2023-01-26T02:12:33;100453.84;;;-4.47;95.74
11712;BME280;5912;51.034;6.984;2023-01-26T02:15:01;100452.78;;;-4.45;95.85
11712;BME280;5912;51.034;6.984;2023-01-26T02:17:27;100446.75;;;-4.44;95.35
11712;BME280;5912;51.034;6.984;2023-01-26T02:20:31;100435.31;;;-4.40;95.60
11712;BME280;5912;51.034;6.984;2023-01-26T02:28:06;100438.94;;;-4.42;95.05
11712;BME280;5912;51.034;6.984;2023-01-26T02:30:32;100435.66;;;-4.44;94.34
11712;BME280;5912;51.034;6.984;2023-01-26T02:32:57;100416.41;;;-4.50;94.02
11712;BME280;5912;51.034;6.984;2023-01-26T02:35:22;100419.34;;;-4.43;93.77
11712;BME280;5912;51.034;6.984;2023-01-26T02:37:48;100427.16;;;-4.45;94.10
11712;BME280;5912;51.034;6.984;2023-01-26T02:40:37;100419.22;;;-4.42;94.01
11712;BME280;5912;51.034;6.984;2023-01-26T02:43:08;100416.78;;;-4.43;94.71
11712;BME280;5912;51.034;6.984;2023-01-26T02:45:34;100421.66;;;-4.40;94.56
11712;BME280;5912;51.034;6.984;2023-01-26T02:48:00;100424.25;;;-4.40;94.61
11712;BME280;5912;51.034;6.984;2023-01-26T02:50:29;100421.91;;;-4.43;94.36
11712;BME280;5912;51.034;6.984;2023-01-26T02:52:55;100393.91;;;-4.58;94.87
11712;BME280;5912;51.034;6.984;2023-01-26T02:55:20;100416.66;;;-4.42;94.69
11712;BME280;5912;51.034;6.984;2023-01-26T02:57:54;100419.22;;;-4.42;94.59
11712;BME280;5912;51.034;6.984;2023-01-26T03:00:22;100422.50;;;-4.40;95.96
11712;BME280;5912;51.034;6.984;2023-01-26T03:02:50;100414.47;;;-4.35;95.31
11712;BME280;5912;51.034;6.984;2023-01-26T03:05:16;100410.28;;;-4.36;95.13
11712;BME280;5912;51.034;6.984;2023-01-26T03:07:41;100414.94;;;-4.30;96.46
11712;BME280;5912;51.034;6.984;2023-01-26T03:10:07;100415.66;;;-4.28;95.86
11712;BME280;5912;51.034;6.984;2023-01-26T03:12:33;100408.78;;;-4.28;96.34
11712;BME280;5912;51.034;6.984;2023-01-26T03:14:59;100405.28;;;-4.27;95.80
11712;BME280;5912;51.034;6.984;2023-01-26T03:17:42;100406.91;;;-4.26;96.77
11712;BME280;5912;51.034;6.984;2023-01-26T03:20:08;100384.03;;;-4.40;96.78
11712;BME280;5912;51.034;6.984;2023-01-26T03:22:52;100386.94;;;-4.44;96.85
11712;BME280;5912;51.034;6.984;2023-01-26T03:25:37;100405.16;;;-4.25;97.03
11712;BME280;5912;51.034;6.984;2023-01-26T03:28:21;100400.03;;;-4.25;96.59
11712;BME280;5912;51.034;6.984;2023-01-26T03:30:51;100395.47;;;-4.33;96.40
11712;BME280;5912;51.034;6.984;2023-01-26T03:33:17;100407.38;;;-4.21;96.69
11712;BME280;5912;51.034;6.984;2023-01-26T03:35:43;100401.22;;;-4.18;96.62
11712;BME280;5912;51.034;6.984;2023-01-26T03:38:09;100398.75;;;-4.20;97.36
11712;BME280;5912;51.034;6.984;2023-01-26T03:40:34;100395.25;;;-4.19;97.01
11712;BME280;5912;51.034;6.984;2023-01-26T03:43:18;100398.66;;;-4.18;96.58
11712;BME280;5912;51.034;6.984;2023-01-26T03:46:03;100396.28;;;-4.21;96.68
11712;BME280;5912;51.034;6.984;2023-01-26T03:48:47;100393.72;;;-4.21;96.70
11712;BME280;5912;51.034;6.984;2023-01-26T03:51:31;100398.75;;;-4.20;97.67
11712;BME280;5912;51.034;6.984;2023-01-26T03:54:15;100393.72;;;-4.21;97.67
11712;BME280;5912;51.034;6.984;2023-01-26T03:56:59;100390.25;;;-4.20;97.49
11712;BME280;5912;51.034;6.984;2023-01-26T03:59:24;100386.63;;;-4.18;98.09
11712;BME280;5912;51.034;6.984;2023-01-26T04:02:05;100380.88;;;-4.21;97.44
11712;BME280;5912;51.034;6.984;2023-01-26T04:04:50;100376.34;;;-4.18;97.65
11712;BME280;5912;51.034;6.984;2023-01-26T04:07:34;100376.59;;;-4.21;98.06
11712;BME280;5912;51.034;6.984;2023-01-26T04:10:18;100375.88;;;-4.23;98.77
11712;BME280;5912;51.034;6.984;2023-01-26T04:12:44;100373.09;;;-4.20;97.74
11712;BME280;5912;51.034;6.984;2023-01-26T04:15:09;100378.13;;;-4.18;99.08
11712;BME280;5912;51.034;6.984;2023-01-26T04:17:53;100375.75;;;-4.21;98.17
11712;BME280;5912;51.034;6.984;2023-01-26T04:20:37;100384.75;;;-4.16;98.00
11712;BME280;5912;51.034;6.984;2023-01-26T04:23:21;100386.25;;;-4.13;98.74
11712;BME280;5912;51.034;6.984;2023-01-26T04:25:47;100356.66;;;-4.28;98.78
11712;BME280;5912;51.034;6.984;2023-01-26T04:28:12;100388.72;;;-4.12;98.35
11712;BME280;5912;51.034;6.984;2023-01-26T04:30:38;100380.69;;;-4.18;99.18
11712;BME280;5912;51.034;6.984;2023-01-26T04:33:03;100373.66;;;-4.16;99.99
11712;BME280;5912;51.034;6.984;2023-01-26T04:35:29;100374.25;;;-4.13;99.03
11712;BME280;5912;51.034;6.984;2023-01-26T04:37:54;100369.13;;;-4.13;98.94
11712;BME280;5912;51.034;6.984;2023-01-26T04:40:19;100371.56;;;-4.11;99.70
11712;BME280;5912;51.034;6.984;2023-01-26T04:42:45;100374.97;;;-4.11;99.59
11712;BME280;5912;51.034;6.984;2023-01-26T04:45:10;100352.22;;;-4.26;99.15
11712;BME280;5912;51.034;6.984;2023-01-26T04:47:36;100384.53;;;-4.13;98.99
11712;BME280;5912;51.034;6.984;2023-01-26T04:50:01;100377.75;;;-4.14;100.00
11712;BME280;5912;51.034;6.984;2023-01-26T04:52:27;100381.84;;;-4.11;99.92
11712;BME280;5912;51.034;6.984;2023-01-26T04:54:52;100381.84;;;-4.11;100.00
11712;BME280;5912;51.034;6.984;2023-01-26T04:57:17;100381.59;;;-4.08;99.35
11712;BME280;5912;51.034;6.984;2023-01-26T04:59:45;100385.09;;;-4.09;99.66
11712;BME280;5912;51.034;6.984;2023-01-26T05:02:10;100384.53;;;-4.13;99.77
11712;BME280;5912;51.034;6.984;2023-01-26T05:04:36;100387.78;;;-4.11;99.76
11712;BME280;5912;51.034;6.984;2023-01-26T05:07:01;100381.84;;;-4.11;100.00
11712;BME280;5912;51.034;6.984;2023-01-26T05:09:26;100349.91;;;-4.29;99.97
11712;BME280;5912;51.034;6.984;2023-01-26T05:11:52;100383.56;;;-4.12;100.00
11712;BME280;5912;51.034;6.984;2023-01-26T05:14:17;100384.28;;;-4.10;99.70
11712;BME280;5912;51.034;6.984;2023-01-26T05:16:42;100381.00;;;-4.12;100.00
11712;BME280;5912;51.034;6.984;2023-01-26T05:19:08;100389.41;;;-4.10;100.00
11712;BME280;5912;51.034;6.984;2023-01-26T05:21:33;100378.34;;;-4.10;100.00
11712;BME280;5912;51.034;6.984;2023-01-26T05:23:58;100367.84;;;-4.18;100.00
11712;BME280;5912;51.034;6.984;2023-01-26T05:26:23;100386.06;;;-4.10;100.00
11712;BME280;5912;51.034;6.984;2023-01-26T05:28:49;100376.47;;;-4.08;100.00
11712;BME280;5912;51.034;6.984;2023-01-26T05:31:14;100378.91;;;-4.07;100.00
11712;BME280;5912;51.034;6.984;2023-01-26T05:33:39;100386.06;;;-4.10;99.77
11712;BME280;5912;51.034;6.984;2023-01-26T05:36:06;100384.41;;;-4.11;100.00
11712;BME280;5912;51.034;6.984;2023-01-26T05:38:32;100379.97;;;-4.09;100.00
11712;BME280;5912;51.034;6.984;2023-01-26T05:40:58;100373.31;;;-4.12;100.00
11712;BME280;5912;51.034;6.984;2023-01-26T05:43:23;100359.69;;;-4.23;100.00
11712;BME280;5912;51.034;6.984;2023-01-26T05:45:49;100383.25;;;-4.07;99.97
11712;BME280;5912;51.034;6.984;2023-01-26T05:48:14;100380.81;;;-4.09;99.79
11712;BME280;5912;51.034;6.984;2023-01-26T05:50:40;100382.31;;;-4.06;100.00
11712;BME280;5912;51.034;6.984;2023-01-26T05:53:05;100367.16;;;-4.09;100.00
11712;BME280;5912;51.034;6.984;2023-01-26T05:55:31;100384.75;;;-4.05;100.00
11712;BME280;5912;51.034;6.984;2023-01-26T05:57:56;100394.19;;;-4.05;100.00
11712;BME280;5912;51.034;6.984;2023-01-26T06:00:22;100388.16;;;-4.04;100.00
11712;BME280;5912;51.034;6.984;2023-01-26T06:02:47;100394.44;;;-4.08;100.00
11712;BME280;5912;51.034;6.984;2023-01-26T06:05:13;100386.38;;;-4.04;100.00
11712;BME280;5912;51.034;6.984;2023-01-26T06:07:38;100399.78;;;-4.00;100.00
11712;BME280;5912;51.034;6.984;2023-01-26T06:10:04;100382.31;;;-4.06;100.00
11712;BME280;5912;51.034;6.984;2023-01-26T06:12:29;100390.47;;;-4.01;99.80
11712;BME280;5912;51.034;6.984;2023-01-26T06:15:02;100388.16;;;-4.04;100.00
11712;BME280;5912;51.034;6.984;2023-01-26T06:17:27;100393.28;;;-4.15;100.00
11712;BME280;5912;51.034;6.984;2023-01-26T06:19:52;100397.81;;;-4.08;100.00
11712;BME280;5912;51.034;6.984;2023-01-26T06:22:18;100382.31;;;-4.17;100.00
11712;BME280;5912;51.034;6.984;2023-01-26T06:24:43;100397.47;;;-4.03;100.00
11712;BME280;5912;51.034;6.984;2023-01-26T06:27:14;100401.56;;;-4.01;100.00
11712;BME280;5912;51.034;6.984;2023-01-26T06:29:39;100406.59;;;-3.99;100.00
11712;BME280;5912;51.034;6.984;2023-01-26T06:32:07;100400.75;;;-4.01;100.00
11712;BME280;5912;51.034;6.984;2023-01-26T06:34:33;100402.13;;;-3.97;100.00
11712;BME280;5912;51.034;6.984;2023-01-26T06:36:58;100401.44;;;-3.99;100.00
11712;BME280;5912;51.034;6.984;2023-01-26T06:39:24;100404.69;;;-3.97;100.00
11712;BME280;5912;51.034;6.984;2023-01-26T06:41:49;100409.81;;;-3.97;100.00
11712;BME280;5912;51.034;6.984;2023-01-26T06:44:14;100422.44;;;-3.94;100.00
11712;BME280;5912;51.034;6.984;2023-01-26T06:46:40;100411.38;;;-3.95;100.00
11712;BME280;5912;51.034;6.984;2023-01-26T06:49:05;100407.25;;;-3.97;100.00
11712;BME280;5912;51.034;6.984;2023-01-26T06:54:14;100413.56;;;-3.90;100.00
11712;BME280;5912;51.034;6.984;2023-01-26T06:56:40;100413.81;;;-3.93;100.00
11712;BME280;5912;51.034;6.984;2023-01-26T06:59:05;100405.03;;;-3.91;100.00
11712;BME280;5912;51.034;6.984;2023-01-26T07:01:34;100414.03;;;-3.85;100.00
11712;BME280;5912;51.034;6.984;2023-01-26T07:04:00;100412.38;;;-3.86;100.00
11712;BME280;5912;51.034;6.984;2023-01-26T07:06:26;100418.34;;;-3.86;100.00
11712;BME280;5912;51.034;6.984;2023-01-26T07:08:51;100419.19;;;-3.85;100.00
11712;BME280;5912;51.034;6.984;2023-01-26T07:11:16;100417.28;;;-3.83;100.00
11712;BME280;5912;51.034;6.984;2023-01-26T07:13:44;100416.50;;;-3.84;100.00
11712;BME280;5912;51.034;6.984;2023-01-26T07:16:11;100414.50;;;-3.80;100.00
11712;BME280;5912;51.034;6.984;2023-01-26T07:18:37;100413.56;;;-3.79;100.00
11712;BME280;5912;51.034;6.984;2023-01-26T07:21:04;100407.50;;;-3.78;100.00
11712;BME280;5912;51.034;6.984;2023-01-26T07:23:29;100386.28;;;-3.91;100.00
11712;BME280;5912;51.034;6.984;2023-01-26T07:25:55;100403.88;;;-3.76;100.00
11712;BME280;5912;51.034;6.984;2023-01-26T07:28:20;100374.00;;;-3.88;100.00
11712;BME280;5912;51.034;6.984;2023-01-26T07:30:46;100403.53;;;-3.71;100.00
11712;BME280;5912;51.034;6.984;2023-01-26T07:33:11;100408.66;;;-3.71;100.00
11712;BME280;5912;51.034;6.984;2023-01-26T07:35:37;100416.13;;;-3.68;100.00
11712;BME280;5912;51.034;6.984;2023-01-26T07:38:03;100412.63;;;-3.67;100.00
11712;BME280;5912;51.034;6.984;2023-01-26T07:40:28;100408.53;;;-3.70;100.00
11712;BME280;5912;51.034;6.984;2023-01-26T07:42:55;100412.84;;;-3.70;100.00
11712;BME280;5912;51.034;6.984;2023-01-26T07:45:20;100420.56;;;-3.70;100.00
11712;BME280;5912;51.034;6.984;2023-01-26T07:47:46;100423.13;;;-3.70;100.00
11712;BME280;5912;51.034;6.984;2023-01-26T07:50:12;100416.38;;;-3.71;100.00
11712;BME280;5912;51.034;6.984;2023-01-26T07:52:38;100404.25;;;-3.80;100.00
11712;BME280;5912;51.034;6.984;2023-01-26T07:55:04;100398.88;;;-3.88;100.00
11712;BME280;5912;51.034;6.984;2023-01-26T07:57:29;100418.09;;;-3.72;100.00
11712;BME280;5912;51.034;6.984;2023-01-26T07:59:55;100410.88;;;-3.78;100.00
11712;BME280;5912;51.034;6.984;2023-01-26T08:02:20;100413.69;;;-3.70;100.00
11712;BME280;5912;51.034;6.984;2023-01-26T08:04:46;100412.63;;;-3.67;100.00
11712;BME280;5912;51.034;6.984;2023-01-26T08:07:11;100418.34;;;-3.64;100.00
11712;BME280;5912;51.034;6.984;2023-01-26T08:09:36;100416.47;;;-3.62;100.00
11712;BME280;5912;51.034;6.984;2023-01-26T08:12:02;100420.53;;;-3.59;100.00
11712;BME280;5912;51.034;6.984;2023-01-26T08:14:27;100412.16;;;-3.61;100.00
11712;BME280;5912;51.034;6.984;2023-01-26T08:16:52;100390.31;;;-3.67;100.00
11712;BME280;5912;51.034;6.984;2023-01-26T08:19:18;100406.78;;;-3.58;100.00
11712;BME280;5912;51.034;6.984;2023-01-26T08:21:43;100396.63;;;-3.60;100.00
11712;BME280;5912;51.034;6.984;2023-01-26T08:24:10;100427.53;;;-3.39;100.00
11712;BME280;5912;51.034;6.984;2023-01-26T08:26:36;100428.13;;;-3.36;100.00
11712;BME280;5912;51.034;6.984;2023-01-26T08:29:01;100433.25;;;-3.36;100.00
11712;BME280;5912;51.034;6.984;2023-01-26T08:31:26;100434.06;;;-3.35;99.96
11712;BME280;5912;51.034;6.984;2023-01-26T08:33:52;100429.97;;;-3.38;100.00
11712;BME280;5912;51.034;6.984;2023-01-26T08:36:19;100426.47;;;-3.37;100.00
11712;BME280;5912;51.034;6.984;2023-01-26T08:38:45;100430.56;;;-3.34;100.00
11712;BME280;5912;51.034;6.984;2023-01-26T08:41:11;100431.25;;;-3.32;100.00
11712;BME280;5912;51.034;6.984;2023-01-26T08:43:36;100436.13;;;-3.29;100.00
11712;BME280;5912;51.034;6.984;2023-01-26T08:46:02;100436.84;;;-3.27;99.57
11712;BME280;5912;51.034;6.984;2023-01-26T08:48:27;100425.84;;;-3.29;99.94
11712;BME280;5912;51.034;6.984;2023-01-26T08:50:54;100441.25;;;-3.18;99.66
11712;BME280;5912;51.034;6.984;2023-01-26T08:53:20;100431.34;;;-3.23;100.00
11712;BME280;5912;51.034;6.984;2023-01-26T08:55:46;100438.09;;;-3.11;99.92
11712;BME280;5912;51.034;6.984;2023-01-26T08:58:11;100445.69;;;-3.09;99.34
11712;BME280;5912;51.034;6.984;2023-01-26T09:00:36;100441.34;;;-3.09;99.56
11712;BME280;5912;51.034;6.984;2023-01-26T09:03:03;100449.88;;;-3.08;100.00
11712;BME280;5912;51.034;6.984;2023-01-26T09:05:38;100453.03;;;-3.05;99.84
11712;BME280;5912;51.034;6.984;2023-01-26T09:08:05;100451.41;;;-3.06;100.00
11712;BME280;5912;51.034;6.984;2023-01-26T09:10:31;100455.72;;;-3.06;98.93
11712;BME280;5912;51.034;6.984;2023-01-26T09:12:57;100452.44;;;-3.08;98.66
11712;BME280;5912;51.034;6.984;2023-01-26T09:15:22;100382.25;;;-3.51;98.94
11712;BME280;5912;51.034;6.984;2023-01-26T09:17:49;100454.41;;;-3.01;99.39
11712;BME280;5912;51.034;6.984;2023-01-26T09:20:15;100459.31;;;-2.97;99.72
11712;BME280;5912;51.034;6.984;2023-01-26T09:22:40;100456.06;;;-2.99;98.80
11712;BME280;5912;51.034;6.984;2023-01-26T09:25:07;100459.88;;;-2.94;98.75
11712;BME280;5912;51.034;6.984;2023-01-26T09:27:32;100458.00;;;-2.92;98.56
11712;BME280;5912;51.034;6.984;2023-01-26T09:29:57;100452.25;;;-2.84;98.97
11712;BME280;5912;51.034;6.984;2023-01-26T09:32:24;100446.22;;;-2.94;99.08
11712;BME280;5912;51.034;6.984;2023-01-26T09:34:49;100464.31;;;-2.85;98.87
11712;BME280;5912;51.034;6.984;2023-01-26T09:37:14;100459.63;;;-2.80;98.94
11712;BME280;5912;51.034;6.984;2023-01-26T09:39:40;100444.66;;;-2.86;98.29
11712;BME280;5912;51.034;6.984;2023-01-26T09:50:44;100444.72;;;-2.76;98.29
11712;BME280;5912;51.034;6.984;2023-01-26T09:53:25;100463.38;;;-2.63;98.34
11712;BME280;5912;51.034;6.984;2023-01-26T09:55:53;100468.66;;;-2.65;98.18
11712;BME280;5912;51.034;6.984;2023-01-26T10:00:59;100457.41;;;-2.64;97.98
11712;BME280;5912;51.034;6.984;2023-01-26T10:06:22;100459.41;;;-2.56;98.00
11712;BME280;5912;51.034;6.984;2023-01-26T10:08:51;100441.97;;;-2.64;97.99
11712;BME280;5912;51.034;6.984;2023-01-26T10:11:28;100460.88;;;-2.54;97.91
11712;BME280;5912;51.034;6.984;2023-01-26T10:16:49;100447.53;;;-2.48;97.61
11712;BME280;5912;51.034;6.984;2023-01-26T10:21:48;100440.81;;;-2.39;98.13
11712;BME280;5912;51.034;6.984;2023-01-26T10:24:16;100446.53;;;-2.36;97.51
11712;BME280;5912;51.034;6.984;2023-01-26T10:26:44;100428.91;;;-2.40;97.21
11712;BME280;5912;51.034;6.984;2023-01-26T10:29:12;100446.53;;;-2.36;97.37
11712;BME280;5912;51.034;6.984;2023-01-26T10:31:39;100435.53;;;-2.38;97.35
11712;BME280;5912;51.034;6.984;2023-01-26T10:36:42;100430.28;;;-2.36;97.62
11712;BME280;5912;51.034;6.984;2023-01-26T10:39:10;100422.44;;;-2.35;97.16
11712;BME280;5912;51.034;6.984;2023-01-26T10:41:36;100415.41;;;-2.53;96.74
11712;BME280;5912;51.034;6.984;2023-01-26T10:44:22;100429.38;;;-2.46;97.28
11712;BME280;5912;51.034;6.984;2023-01-26T10:47:13;100421.53;;;-2.45;97.27
11712;BME280;5912;51.034;6.984;2023-01-26T10:49:39;100417.78;;;-2.41;97.40
11712;BME280;5912;51.034;6.984;2023-01-26T10:52:19;100412.91;;;-2.44;97.98
11712;BME280;5912;51.034;6.984;2023-01-26T10:54:47;100417.53;;;-2.38;98.29
11712;BME280;5912;51.034;6.984;2023-01-26T10:57:24;100416.22;;;-2.32;98.08
11712;BME280;5912;51.034;6.984;2023-01-26T10:59:56;100417.34;;;-2.25;98.45
11712;BME280;5912;51.034;6.984;2023-01-26T11:02:29;100410.44;;;-2.25;98.01
11712;BME280;5912;51.034;6.984;2023-01-26T11:07:35;100409.75;;;-2.27;97.34
11712;BME280;5912;51.034;6.984;2023-01-26T11:10:31;100413.94;;;-2.26;97.55
11712;BME280;5912;51.034;6.984;2023-01-26T11:15:43;100399.97;;;-2.33;97.42
11712;BME280;5912;51.034;6.984;2023-01-26T11:20:50;100399.13;;;-2.33;97.78
11712;BME280;5912;51.034;6.984;2023-01-26T11:26:23;100407.41;;;-2.09;98.07
11712;BME280;5912;51.034;6.984;2023-01-26T11:35:15;100384.59;;;-1.84;97.08
11712;BME280;5912;51.034;6.984;2023-01-26T11:37:48;100383.50;;;-1.81;97.16
11712;BME280;5912;51.034;6.984;2023-01-26T11:40:43;100389.22;;;-1.78;97.15
11712;BME280;5912;51.034;6.984;2023-01-26T11:48:50;100379.19;;;-1.81;96.56
11712;BME280;5912;51.034;6.984;2023-01-26T11:56:51;100378.97;;;-1.98;96.87
11712;BME280;5912;51.034;6.984;2023-01-26T11:59:28;100389.84;;;-1.95;96.81
11712;BME280;5912;51.034;6.984;2023-01-26T12:01:58;100381.69;;;-2.00;97.06
11712;BME280;5912;51.034;6.984;2023-01-26T12:04:25;100373.28;;;-2.02;97.57
11712;BME280;5912;51.034;6.984;2023-01-26T12:07:05;100360.22;;;-2.10;97.30
11712;BME280;5912;51.034;6.984;2023-01-26T12:09:39;100365.94;;;-2.06;97.57
11712;BME280;5912;51.034;6.984;2023-01-26T12:12:29;100377.06;;;-2.06;97.80
11712;BME280;5912;51.034;6.984;2023-01-26T12:15:10;100365.63;;;-2.13;97.34
11712;BME280;5912;51.034;6.984;2023-01-26T12:18:15;100375.94;;;-2.13;97.09
11712;BME280;5912;51.034;6.984;2023-01-26T12:20:50;100356.91;;;-2.31;97.61
11712;BME280;5912;51.034;6.984;2023-01-26T12:26:17;100360.16;;;-2.29;98.09
11712;BME280;5912;51.034;6.984;2023-01-26T12:31:34;100342.78;;;-2.36;98.09
11712;BME280;5912;51.034;6.984;2023-01-26T12:34:01;100349.53;;;-2.35;97.96
11712;BME280;5912;51.034;6.984;2023-01-26T12:36:47;100346.03;;;-2.34;98.58
11712;BME280;5912;51.034;6.984;2023-01-26T12:39:20;100335.06;;;-2.36;98.74
11712;BME280;5912;51.034;6.984;2023-01-26T12:42:01;100333.31;;;-2.36;98.68
11712;BME280;5912;51.034;6.984;2023-01-26T12:44:43;100336.56;;;-2.34;99.18
11712;BME280;5912;51.034;6.984;2023-01-26T12:47:19;100328.59;;;-2.31;99.12
11712;BME280;5912;51.034;6.984;2023-01-26T12:54:58;100325.19;;;-2.01;99.52
11712;BME280;5912;51.034;6.984;2023-01-26T12:57:45;100326.16;;;-1.93;99.15
11712;BME280;5912;51.034;6.984;2023-01-26T13:00:19;100318.03;;;-1.88;98.81
11712;BME280;5912;51.034;6.984;2023-01-26T13:02:49;100319.38;;;-1.84;98.59
11712;BME280;5912;51.034;6.984;2023-01-26T13:05:34;100280.72;;;-2.03;98.00
11712;BME280;5912;51.034;6.984;2023-01-26T13:18:48;100313.59;;;-1.77;97.75
11712;BME280;5912;51.034;6.984;2023-01-26T13:26:43;100289.16;;;-1.82;98.03
11712;BME280;5912;51.034;6.984;2023-01-26T13:31:50;100321.72;;;-1.72;97.81
11712;BME280;5912;51.034;6.984;2023-01-26T13:34:19;100319.53;;;-1.76;98.00
11712;BME280;5912;51.034;6.984;2023-01-26T13:36:47;100313.69;;;-1.78;98.09
11712;BME280;5912;51.034;6.984;2023-01-26T13:39:30;100319.25;;;-1.83;98.22
11712;BME280;5912;51.034;6.984;2023-01-26T13:41:58;100316.94;;;-1.86;98.78
11712;BME280;5912;51.034;6.984;2023-01-26T13:44:36;100318.84;;;-1.88;98.91
11712;BME280;5912;51.034;6.984;2023-01-26T13:47:11;100309.22;;;-1.86;99.51
11712;BME280;5912;51.034;6.984;2023-01-26T13:49:41;100307.59;;;-1.87;99.45
11712;BME280;5912;51.034;6.984;2023-01-26T13:52:19;100309.47;;;-1.89;99.31
11712;BME280;5912;51.034;6.984;2023-01-26T13:54:47;100314.22;;;-1.84;100.00
11712;BME280;5912;51.034;6.984;2023-01-26T13:57:28;100305.03;;;-1.87;100.00
11712;BME280;5912;51.034;6.984;2023-01-26T13:59:55;100315.06;;;-1.84;100.00
11712;BME280;5912;51.034;6.984;2023-01-26T14:02:23;100314.09;;;-1.83;100.00
11712;BME280;5912;51.034;6.984;2023-01-26T14:04:51;100319.94;;;-1.81;100.00
11712;BME280;5912;51.034;6.984;2023-01-26T14:07:18;100315.06;;;-1.84;100.00
11712;BME280;5912;51.034;6.984;2023-01-26T14:09:49;100295.25;;;-1.93;100.00
11712;BME280;5912;51.034;6.984;2023-01-26T14:12:27;100302.19;;;-1.84;100.00
11712;BME280;5912;51.034;6.984;2023-01-26T14:14:56;100316.41;;;-1.80;100.00
11712;BME280;5912;51.034;6.984;2023-01-26T14:17:33;100295.41;;;-1.85;100.00
11712;BME280;5912;51.034;6.984;2023-01-26T14:20:19;100318.75;;;-1.77;100.00
11712;BME280;5912;51.034;6.984;2023-01-26T14:22:45;100306.78;;;-1.78;100.00
11712;BME280;5912;51.034;6.984;2023-01-26T14:25:26;100322.94;;;-1.76;100.00
11712;BME280;5912;51.034;6.984;2023-01-26T14:27:51;100321.31;;;-1.77;100.00
11712;BME280;5912;51.034;6.984;2023-01-26T14:30:28;100320.38;;;-1.76;100.00
11712;BME280;5912;51.034;6.984;2023-01-26T14:33:08;100319.41;;;-1.75;100.00
11712;BME280;5912;51.034;6.984;2023-01-26T14:35:35;100319.41;;;-1.75;100.00
11712;BME280;5912;51.034;6.984;2023-01-26T14:38:12;100316.69;;;-1.73;100.00